YPLM

Learmonth Airport

Exmouth, Australia
TAF YPLM 252300Z 2600/2624 20008KT CAVOK FM260800 23014KT CAVOK FM261600 19010KT CAVOK
Issued Valid From Valid To
Apr-25 @ 23:00 UTC
(5 hours ago)
Apr-26 @ 00:00 UTC
(4 hours ago)
Apr-27 @ 00:00 UTC
(in 20 hours)
Apr-26 @ 00:00 to Apr-26 @ 08:00
TAF YPLM 252300Z 2600/2624 20008KT CAVOK
Wind Visibility Clouds Conditions
200° at 8 knots 10,000+ meters
  • No significant clouds
From Apr-26 @ 08:00 to Apr-26 @ 16:00
FM260800 23014KT CAVOK
Wind Visibility Clouds Conditions
230° at 14 knots 10,000+ meters
  • No significant clouds
From Apr-26 @ 16:00 to Apr-27 @ 00:00
FM261600 19010KT CAVOK
Wind Visibility Clouds Conditions
190° at 10 knots 10,000+ meters
  • No significant clouds
TAF YPLM 252300Z 2600/2624 20008KT CAVOK FM260800 23014KT CAVOK FM261600 19010KT CAVOK
Issued Apr-25 @ 23:00 UTC
(5 hours ago)
Valid From Apr-26 @ 00:00 UTC
(4 hours ago)
Valid To Apr-27 @ 00:00 UTC
(in 20 hours)
Apr-26 @ 00:00 - Apr-26 @ 08:00
Wind Visibility
200° at 8 knots 10,000+ meters
Clouds
  • No significant clouds
Conditions
From Apr-26 @ 08:00 - Apr-26 @ 16:00
Wind Visibility
230° at 14 knots 10,000+ meters
Clouds
  • No significant clouds
Conditions
From Apr-26 @ 16:00 - Apr-27 @ 00:00
Wind Visibility
190° at 10 knots 10,000+ meters
Clouds
  • No significant clouds
Conditions